Time;durP1;ratioP1;P1;durP2;ratioP2;P2;SDS_P1;SDS_P2;PMS_P1;PMS_P2;Temp;Humidity;BMP_temperature;BMP_pressure;BME280_temperature;BME280_humidity;BME280_pressure;Samples;Min_cycle;Max_cycle;Signal;HPM_P1;HPM_P2
2021/07/05 00:05:59;;;;;;;22.83;15.33;;;;;;;26.32;68.09;99886.03;20891171;28;20397;-54
2021/07/05 00:16:00;;;;;;;19.03;11.50;;;;;;;26.88;65.93;99884.47;20890722;28;20310;-53
2021/07/05 00:36:09;;;;;;;17.57;12.77;;;;;;;26.84;66.56;99891.41;20455029;27;8295689;-53
2021/07/05 00:46:11;;;;;;;24.30;13.00;;;;;;;27.28;64.72;99889.00;20727808;28;20259;-52
2021/07/05 00:56:11;;;;;;;20.97;12.53;;;;;;;26.38;67.22;99875.09;20727120;28;20225;-53
2021/07/05 01:06:12;;;;;;;14.50;12.23;;;;;;;26.14;67.26;99859.28;20726249;28;20232;-61
2021/07/05 01:16:12;;;;;;;16.43;12.67;;;;;;;25.31;69.80;99855.97;20725298;28;20316;-53
2021/07/05 02:06:02;;;;;;;21.53;13.07;;;;;;;25.57;70.08;99882.53;20778988;27;8000431;-57
2021/07/05 02:36:16;;;;;;;26.90;16.47;;;;;;;26.10;69.58;99867.06;20615919;27;8293119;-53
2021/07/05 02:46:16;;;;;;;27.33;16.17;;;;;;;26.03;70.10;99874.44;20891792;28;20235;-53
2021/07/05 03:06:27;;;;;;;20.03;14.77;;;;;;;26.78;70.39;99888.72;20611652;27;8306539;-52
2021/07/05 03:16:28;;;;;;;21.37;15.20;;;;;;;26.63;70.96;99897.16;20891426;28;20751;-53
2021/07/05 03:46:34;;;;;;;19.57;14.33;;;;;;;27.12;71.09;99904.03;20609832;27;8299967;-54
2021/07/05 03:56:35;;;;;;;17.33;13.87;;;;;;;26.88;71.61;99911.84;20892020;28;20246;-54
2021/07/05 04:06:35;;;;;;;21.40;14.93;;;;;;;27.07;73.30;99917.50;20891061;28;20582;-53
2021/07/05 04:16:36;;;;;;;20.67;14.57;;;;;;;27.89;71.63;99925.00;20890363;28;20220;-61
2021/07/05 04:26:36;;;;;;;16.83;13.60;;;;;;;28.58;70.63;99916.66;20889672;28;20217;-53
2021/07/05 04:36:37;;;;;;;18.57;14.97;;;;;;;28.94;70.07;99921.41;20888739;28;20257;-54
2021/07/05 04:46:39;;;;;;;19.43;15.20;;;;;;;29.30;70.82;99937.06;20970147;28;20218;-56
2021/07/05 04:56:39;;;;;;;22.13;16.20;;;;;;;29.47;72.00;99926.28;20920200;28;20219;-53
2021/07/05 05:06:40;;;;;;;17.63;14.63;;;;;;;29.88;70.88;99911.78;20912864;28;20632;-57
2021/07/05 05:16:48;;;;;;;17.80;14.50;;;;;;;30.20;71.50;99909.59;20913182;28;20474;-52
2021/07/05 05:26:48;;;;;;;18.53;13.47;;;;;;;30.23;72.32;99903.63;20912305;28;20253;-55
2021/07/05 05:36:55;;;;;;;19.50;14.43;;;;;;;31.13;70.25;99908.84;20910631;28;20239;-52
2021/07/05 05:46:55;;;;;;;15.23;11.77;;;;;;;31.95;71.28;99911.34;20911215;28;20644;-62
2021/07/05 05:56:56;;;;;;;24.57;17.60;;;;;;;32.33;70.07;99914.25;20910235;28;20283;-60
2021/07/05 06:06:56;;;;;;;22.90;15.47;;;;;;;32.14;71.03;99915.53;20908554;28;20611;-55
2021/07/05 06:16:57;;;;;;;22.23;16.30;;;;;;;33.31;75.15;99914.66;20908724;28;20228;-53
2021/07/05 06:26:57;;;;;;;29.73;17.53;;;;;;;34.67;75.73;99927.16;20908150;28;20222;-54
2021/07/05 06:36:58;;;;;;;14.57;12.45;;;;;;;35.83;72.35;99931.72;20906034;28;20231;-53
2021/07/05 06:46:58;;;;;;;19.73;14.32;;;;;;;37.15;72.47;99942.84;20905919;28;20231;-53
2021/07/05 06:56:59;;;;;;;12.23;10.77;;;;;;;36.04;76.18;99950.09;20905696;28;20605;-53
2021/07/05 07:06:59;;;;;;;11.73;10.35;;;;;;;34.28;84.84;99928.50;20905297;28;20223;-53
2021/07/05 07:17:05;;;;;;;16.30;11.48;;;;;;;32.46;80.06;99930.50;20904527;28;20251;-53
2021/07/05 07:27:07;;;;;;;12.07;10.52;;;;;;;32.07;86.46;99936.97;20904119;28;20239;-53
2021/07/05 07:37:08;;;;;;;11.13;8.17;;;;;;;32.72;80.87;99940.06;20902667;28;20318;-53
2021/07/05 07:47:09;;;;;;;9.37;8.50;;;;;;;31.89;83.69;99939.91;20903184;28;20323;-53
2021/07/05 07:57:16;;;;;;;10.47;9.77;;;;;;;30.32;76.61;99918.72;20902551;28;20223;-53
2021/07/05 08:07:18;;;;;;;10.47;9.67;;;;;;;29.56;77.95;99919.44;20902511;28;20554;-53
2021/07/05 08:17:18;;;;;;;13.77;12.73;;;;;;;30.02;81.72;99923.44;20901808;28;20227;-53
2021/07/05 08:27:19;;;;;;;13.20;12.13;;;;;;;30.27;76.68;99907.59;20908215;28;20226;-52
2021/07/05 08:37:19;;;;;;;13.33;12.33;;;;;;;30.58;79.96;99916.63;20915464;28;20322;-53
2021/07/05 08:47:20;;;;;;;12.87;11.87;;;;;;;30.87;77.91;99912.09;20915950;28;20216;-53
2021/07/05 08:57:27;;;;;;;12.87;11.90;;;;;;;32.22;84.45;99906.91;20915347;28;20219;-53
2021/07/05 09:07:28;;;;;;;10.32;9.55;;;;;;;33.71;81.87;99897.69;20914486;28;20326;-58
2021/07/05 09:17:33;;;;;;;9.10;8.35;;;;;;;32.55;76.33;99890.31;20913537;28;20234;-53
2021/07/05 09:27:34;;;;;;;10.27;9.45;;;;;;;32.34;76.88;99885.56;20912878;28;20215;-53
2021/07/05 09:38:01;;;;;;;10.43;9.60;;;;;;;32.71;70.55;99883.13;20916283;28;20269;-53
2021/07/05 09:48:20;;;;;;;9.87;9.10;;;;;;;32.58;72.50;99882.59;20911113;28;20255;-55
2021/07/05 09:58:31;;;;;;;9.33;8.67;;;;;;;31.59;70.13;99893.25;20910524;28;20302;-55
2021/07/05 10:08:31;;;;;;;9.60;8.80;;;;;;;31.76;79.28;99897.72;20909590;28;20223;-63
2021/07/05 10:18:33;;;;;;;9.57;8.77;;;;;;;32.19;80.36;99896.34;20906917;28;20230;-55
2021/07/05 10:28:33;;;;;;;7.03;6.53;;;;;;;33.31;84.36;99914.66;20906631;28;20281;-55
2021/07/05 10:38:48;;;;;;;6.00;5.50;;;;;;;34.12;76.36;99901.72;20905651;28;20231;-55
2021/07/05 10:48:49;;;;;;;4.50;4.18;;;;;;;34.32;81.50;99915.78;20905621;28;20226;-59
2021/07/05 10:58:49;;;;;;;4.20;3.90;;;;;;;34.96;80.04;99907.41;20904692;28;20606;-60
2021/07/05 11:08:51;;;;;;;3.80;3.60;;;;;;;34.37;78.75;99898.38;20905387;28;20222;-55
2021/07/05 11:18:52;;;;;;;4.22;3.92;;;;;;;33.88;75.57;99899.28;20904282;28;20287;-60
2021/07/05 11:29:21;;;;;;;5.30;3.42;;;;;;;33.80;66.86;99888.72;20904216;28;20591;-59
2021/07/05 11:39:30;;;;;;;3.97;3.67;;;;;;;33.79;65.35;99892.56;20902067;28;20242;-55
2021/07/05 11:49:33;;;;;;;3.83;3.63;;;;;;;33.62;75.32;99889.84;20903204;28;20215;-57
2021/07/05 11:59:35;;;;;;;3.67;3.47;;;;;;;33.09;69.43;99882.25;20904894;28;20230;-57
2021/07/05 12:09:37;;;;;;;3.20;3.08;;;;;;;33.97;76.55;99871.97;20918865;28;20216;-55
2021/07/05 12:19:41;;;;;;;3.50;3.30;;;;;;;33.53;76.04;99869.28;20917826;28;20759;-57
2021/07/05 12:29:53;;;;;;;4.63;3.55;;;;;;;33.88;70.62;99866.06;20917261;28;20226;-55
2021/07/05 12:40:03;;;;;;;4.22;3.83;;;;;;;33.97;71.76;99858.13;20914869;28;20227;-55
2021/07/05 12:50:04;;;;;;;3.83;3.63;;;;;;;34.72;74.44;99859.00;20915615;28;20230;-55
2021/07/05 13:00:07;;;;;;;3.78;3.47;;;;;;;35.75;75.34;99857.25;20896980;28;20223;-61
2021/07/05 13:10:08;;;;;;;3.65;3.35;;;;;;;34.26;68.94;99855.91;20913487;28;20227;-55
2021/07/05 13:20:20;;;;;;;3.97;3.70;;;;;;;34.59;70.80;99861.13;20913288;28;20233;-54
2021/07/05 13:30:24;;;;;;;4.18;3.97;;;;;;;35.41;75.71;99861.59;20912610;28;20258;-55
2021/07/05 13:40:27;;;;;;;4.82;4.40;;;;;;;34.89;74.81;99866.06;20910407;28;20246;-61
2021/07/05 13:50:33;;;;;;;4.38;4.18;;;;;;;36.18;71.36;99858.69;20900859;28;20223;-54
2021/07/05 14:00:49;;;;;;;4.38;4.18;;;;;;;37.30;64.99;99867.69;20882558;28;20239;-56
2021/07/05 14:10:52;;;;;;;4.72;4.38;;;;;;;37.85;73.67;99869.34;20897763;28;20215;-57
2021/07/05 14:20:53;;;;;;;4.72;4.43;;;;;;;37.11;77.80;99863.84;20873672;28;20223;-56
2021/07/05 14:30:56;;;;;;;4.95;4.35;;;;;;;37.21;79.62;99868.56;20893290;28;20640;-56
2021/07/05 14:40:58;;;;;;;5.40;4.97;;;;;;;37.71;77.43;99864.69;20867217;28;20266;-56
2021/07/05 14:50:59;;;;;;;4.90;4.50;;;;;;;38.20;77.31;99859.91;20890130;28;20230;-55
2021/07/05 15:00:59;;;;;;;5.40;5.05;;;;;;;38.10;73.43;99854.41;20875398;28;20227;-55
2021/07/05 15:11:00;;;;;;;5.15;4.72;;;;;;;38.03;74.09;99864.22;20885116;28;20823;-56
2021/07/05 15:21:02;;;;;;;5.38;5.07;;;;;;;38.15;72.35;99846.03;20883729;28;20895;-56
2021/07/05 15:31:03;;;;;;;5.47;5.10;;;;;;;36.70;71.55;99844.50;20877386;28;20250;-63
2021/07/05 15:41:04;;;;;;;5.53;5.22;;;;;;;35.55;70.49;99846.09;20889767;28;20231;-63
2021/07/05 15:51:04;;;;;;;5.65;5.25;;;;;;;35.17;72.63;99850.94;20868128;28;20334;-56
2021/07/05 16:01:06;;;;;;;6.43;6.03;;;;;;;34.47;70.99;99830.00;20895525;28;20233;-58
2021/07/05 16:11:07;;;;;;;6.45;5.35;;;;;;;34.06;71.08;99839.06;20867557;28;20211;-55
2021/07/05 16:21:07;;;;;;;5.88;5.43;;;;;;;33.65;72.66;99840.63;20894190;28;20227;-55
2021/07/05 16:31:08;;;;;;;6.83;6.33;;;;;;;33.42;71.83;99845.38;20872807;28;20218;-56
2021/07/05 16:41:12;;;;;;;7.20;6.70;;;;;;;33.68;72.46;99865.00;20880697;28;20239;-56
2021/07/05 16:51:19;;;;;;;6.90;6.32;;;;;;;33.38;75.54;99876.56;20890474;28;20219;-56
2021/07/05 17:01:20;;;;;;;6.95;6.55;;;;;;;34.60;74.32;99887.75;20889202;28;20223;-56
2021/07/05 17:11:21;;;;;;;6.40;6.00;;;;;;;35.26;74.62;99904.00;20901375;28;20672;-56
2021/07/05 17:21:22;;;;;;;6.65;6.15;;;;;;;35.50;73.28;99904.38;20878069;28;20281;-58
2021/07/05 17:31:23;;;;;;;6.93;6.43;;;;;;;34.13;70.61;99895.09;20900341;28;20261;-60
2021/07/05 17:41:25;;;;;;;8.40;6.77;;;;;;;32.88;71.60;99894.97;20875880;28;20713;-58
2021/07/05 17:51:25;;;;;;;7.83;6.83;;;;;;;32.13;71.72;99897.28;20899095;28;20569;-54
2021/07/05 18:01:26;;;;;;;7.47;6.80;;;;;;;31.63;71.45;99903.53;20880337;28;20318;-54
2021/07/05 18:11:26;;;;;;;7.97;7.37;;;;;;;31.34;70.39;99905.44;20889795;28;20212;-56
2021/07/05 18:21:28;;;;;;;7.67;7.17;;;;;;;31.02;71.00;99924.31;20880843;28;20249;-62
2021/07/05 18:31:29;;;;;;;8.03;7.40;;;;;;;30.75;70.86;99929.47;20878682;28;20219;-64
2021/07/05 18:41:30;;;;;;;8.20;7.67;;;;;;;30.59;72.17;99945.84;20893086;28;20239;-56
2021/07/05 18:51:30;;;;;;;10.60;9.80;;;;;;;30.20;69.87;99964.66;20871101;28;20235;-61
2021/07/05 19:01:31;;;;;;;9.90;9.10;;;;;;;30.12;72.36;99962.25;20892950;28;20241;-55
2021/07/05 19:11:31;;;;;;;10.83;10.03;;;;;;;29.93;71.67;99977.13;20869733;28;20712;-54
2021/07/05 19:21:32;;;;;;;11.53;10.67;;;;;;;29.80;72.14;99985.53;20891934;28;20707;-54
2021/07/05 19:41:41;;;;;;;11.07;10.17;;;;;;;29.03;71.62;100012.59;20596474;27;8355895;-53
2021/07/05 19:51:41;;;;;;;10.83;10.13;;;;;;;28.77;71.85;100002.66;20869173;28;20223;-53
2021/07/05 20:01:42;;;;;;;11.13;10.23;;;;;;;28.44;72.33;99999.34;20865507;28;20222;-54
2021/07/05 20:11:42;;;;;;;11.67;10.57;;;;;;;27.95;71.85;99995.41;20878149;28;20328;-53
2021/07/05 20:31:52;;;;;;;12.27;11.37;;;;;;;27.75;69.61;99997.41;20393964;27;8122306;-52
2021/07/05 20:41:53;;;;;;;11.97;11.03;;;;;;;27.28;70.49;99996.72;20613399;28;20270;-53
2021/07/05 20:51:53;;;;;;;12.57;11.67;;;;;;;26.80;72.83;99994.22;20633746;28;20222;-52
2021/07/05 21:01:54;;;;;;;12.90;11.77;;;;;;;26.60;72.03;99993.38;20615493;28;20242;-53
2021/07/05 21:11:55;;;;;;;13.33;12.33;;;;;;;26.57;71.91;100004.72;20625219;28;20228;-52
2021/07/05 21:21:55;;;;;;;14.30;13.10;;;;;;;26.30;72.31;100012.09;20623959;28;20538;-54
2021/07/05 21:52:02;;;;;;;15.67;14.30;;;;;;;25.70;74.28;100048.47;20735543;27;8290495;-53
2021/07/05 22:12:10;;;;;;;15.97;14.67;;;;;;;25.46;75.06;100049.78;20583154;27;8294239;-53
2021/07/05 22:22:11;;;;;;;17.73;16.13;;;;;;;25.30;74.87;100045.47;20880628;28;20943;-55
2021/07/05 22:32:11;;;;;;;15.20;13.87;;;;;;;25.59;73.34;100033.47;20861147;28;20233;-53
2021/07/05 22:42:12;;;;;;;16.03;14.70;;;;;;;25.49;72.97;100044.75;20873995;28;20289;-52
2021/07/05 23:12:18;;;;;;;18.57;16.87;;;;;;;25.36;73.21;100060.22;20542061;27;8295638;-54
2021/07/05 23:22:18;;;;;;;18.03;16.53;;;;;;;25.45;72.92;100064.50;20777395;28;20322;-63
2021/07/05 23:32:19;;;;;;;20.00;18.30;;;;;;;25.24;73.23;100051.72;20796864;28;20221;-54
2021/07/05 23:52:30;;;;;;;19.37;17.47;;;;;;;25.29;71.24;100062.91;20599359;27;8292796;-52
